sensor_id;sensor_type;location;lat;lon;timestamp;temperature;humidity
46309;DHT22;32037;50.820;6.494;2023-04-21T00:00:10;13.00;77.90
46309;DHT22;32037;50.820;6.494;2023-04-21T00:02:39;13.00;78.00
46309;DHT22;32037;50.820;6.494;2023-04-21T00:05:08;12.90;77.80
46309;DHT22;32037;50.820;6.494;2023-04-21T00:07:40;13.00;78.00
46309;DHT22;32037;50.820;6.494;2023-04-21T00:10:09;12.90;77.90
46309;DHT22;32037;50.820;6.494;2023-04-21T00:12:38;12.90;78.00
46309;DHT22;32037;50.820;6.494;2023-04-21T00:15:08;12.90;77.90
46309;DHT22;32037;50.820;6.494;2023-04-21T00:17:36;12.90;78.00
46309;DHT22;32037;50.820;6.494;2023-04-21T00:20:06;12.90;78.00
46309;DHT22;32037;50.820;6.494;2023-04-21T00:22:36;12.90;78.00
46309;DHT22;32037;50.820;6.494;2023-04-21T00:25:06;12.90;78.00
46309;DHT22;32037;50.820;6.494;2023-04-21T00:27:35;12.90;78.00
46309;DHT22;32037;50.820;6.494;2023-04-21T00:30:04;12.90;78.00
46309;DHT22;32037;50.820;6.494;2023-04-21T00:32:35;12.90;78.10
46309;DHT22;32037;50.820;6.494;2023-04-21T00:35:04;12.90;78.10
46309;DHT22;32037;50.820;6.494;2023-04-21T00:37:33;12.90;78.20
46309;DHT22;32037;50.820;6.494;2023-04-21T00:40:03;12.90;78.10
46309;DHT22;32037;50.820;6.494;2023-04-21T00:42:33;12.90;78.20
46309;DHT22;32037;50.820;6.494;2023-04-21T00:45:01;12.90;78.20
46309;DHT22;32037;50.820;6.494;2023-04-21T00:47:30;12.90;78.20
46309;DHT22;32037;50.820;6.494;2023-04-21T00:49:58;12.90;78.20
46309;DHT22;32037;50.820;6.494;2023-04-21T00:52:27;12.90;78.20
46309;DHT22;32037;50.820;6.494;2023-04-21T00:54:56;12.90;78.30
46309;DHT22;32037;50.820;6.494;2023-04-21T00:57:24;12.90;78.30
46309;DHT22;32037;50.820;6.494;2023-04-21T00:59:55;12.90;78.20
46309;DHT22;32037;50.820;6.494;2023-04-21T01:02:24;12.90;78.20
46309;DHT22;32037;50.820;6.494;2023-04-21T01:04:54;12.80;78.20
46309;DHT22;32037;50.820;6.494;2023-04-21T01:07:24;12.90;78.40
46309;DHT22;32037;50.820;6.494;2023-04-21T01:09:52;12.80;78.30
46309;DHT22;32037;50.820;6.494;2023-04-21T01:12:22;12.90;78.30
46309;DHT22;32037;50.820;6.494;2023-04-21T01:14:50;12.80;78.30
46309;DHT22;32037;50.820;6.494;2023-04-21T01:17:20;12.90;78.30
46309;DHT22;32037;50.820;6.494;2023-04-21T01:19:49;12.80;78.20
46309;DHT22;32037;50.820;6.494;2023-04-21T01:22:20;12.80;78.20
46309;DHT22;32037;50.820;6.494;2023-04-21T01:24:48;12.80;78.20
46309;DHT22;32037;50.820;6.494;2023-04-21T01:27:19;12.90;78.40
46309;DHT22;32037;50.820;6.494;2023-04-21T01:29:49;12.80;78.30
46309;DHT22;32037;50.820;6.494;2023-04-21T01:32:19;12.80;78.30
46309;DHT22;32037;50.820;6.494;2023-04-21T01:34:48;12.80;78.30
46309;DHT22;32037;50.820;6.494;2023-04-21T01:37:21;12.80;78.20
46309;DHT22;32037;50.820;6.494;2023-04-21T01:39:53;12.80;78.30
46309;DHT22;32037;50.820;6.494;2023-04-21T01:42:23;12.80;78.30
46309;DHT22;32037;50.820;6.494;2023-04-21T01:44:52;12.80;78.30
46309;DHT22;32037;50.820;6.494;2023-04-21T01:47:22;12.80;78.30
46309;DHT22;32037;50.820;6.494;2023-04-21T01:49:51;12.80;78.40
46309;DHT22;32037;50.820;6.494;2023-04-21T01:52:21;12.80;78.40
46309;DHT22;32037;50.820;6.494;2023-04-21T01:54:52;12.80;78.40
46309;DHT22;32037;50.820;6.494;2023-04-21T01:57:21;12.80;78.50
46309;DHT22;32037;50.820;6.494;2023-04-21T01:59:50;12.80;78.50
46309;DHT22;32037;50.820;6.494;2023-04-21T02:02:19;12.80;78.50
46309;DHT22;32037;50.820;6.494;2023-04-21T02:04:47;12.80;78.50
46309;DHT22;32037;50.820;6.494;2023-04-21T02:07:16;12.80;78.50
46309;DHT22;32037;50.820;6.494;2023-04-21T02:09:45;12.80;78.40
46309;DHT22;32037;50.820;6.494;2023-04-21T02:12:14;12.80;78.50
46309;DHT22;32037;50.820;6.494;2023-04-21T02:14:42;12.80;78.50
46309;DHT22;32037;50.820;6.494;2023-04-21T02:17:13;12.80;78.40
46309;DHT22;32037;50.820;6.494;2023-04-21T02:19:41;12.80;78.50
46309;DHT22;32037;50.820;6.494;2023-04-21T02:22:10;12.80;78.50
46309;DHT22;32037;50.820;6.494;2023-04-21T02:24:38;12.80;78.50
46309;DHT22;32037;50.820;6.494;2023-04-21T02:27:08;12.80;78.50
46309;DHT22;32037;50.820;6.494;2023-04-21T02:29:37;12.70;78.40
46309;DHT22;32037;50.820;6.494;2023-04-21T02:32:07;12.70;78.40
46309;DHT22;32037;50.820;6.494;2023-04-21T02:34:51;12.70;78.40
46309;DHT22;32037;50.820;6.494;2023-04-21T02:37:20;12.70;78.50
46309;DHT22;32037;50.820;6.494;2023-04-21T02:39:48;12.70;78.50
46309;DHT22;32037;50.820;6.494;2023-04-21T02:42:18;12.70;78.40
46309;DHT22;32037;50.820;6.494;2023-04-21T02:44:47;12.70;78.50
46309;DHT22;32037;50.820;6.494;2023-04-21T02:47:15;12.70;78.50
46309;DHT22;32037;50.820;6.494;2023-04-21T02:49:44;12.70;78.60
46309;DHT22;32037;50.820;6.494;2023-04-21T02:52:12;12.70;78.60
46309;DHT22;32037;50.820;6.494;2023-04-21T02:54:40;12.70;78.60
46309;DHT22;32037;50.820;6.494;2023-04-21T02:57:09;12.70;78.60
46309;DHT22;32037;50.820;6.494;2023-04-21T02:59:40;12.70;78.80
46309;DHT22;32037;50.820;6.494;2023-04-21T03:02:08;12.70;78.70
46309;DHT22;32037;50.820;6.494;2023-04-21T03:04:37;12.70;78.70
46309;DHT22;32037;50.820;6.494;2023-04-21T03:07:10;12.70;78.60
46309;DHT22;32037;50.820;6.494;2023-04-21T03:09:39;12.70;78.60
46309;DHT22;32037;50.820;6.494;2023-04-21T03:12:08;12.70;78.70
46309;DHT22;32037;50.820;6.494;2023-04-21T03:14:36;12.70;78.60
46309;DHT22;32037;50.820;6.494;2023-04-21T03:17:07;12.70;78.70
46309;DHT22;32037;50.820;6.494;2023-04-21T03:19:35;12.70;78.70
46309;DHT22;32037;50.820;6.494;2023-04-21T03:22:04;12.70;78.70
46309;DHT22;32037;50.820;6.494;2023-04-21T03:24:32;12.60;78.70
46309;DHT22;32037;50.820;6.494;2023-04-21T03:27:01;12.60;78.60
46309;DHT22;32037;50.820;6.494;2023-04-21T03:29:29;12.70;78.70
46309;DHT22;32037;50.820;6.494;2023-04-21T03:31:57;12.60;78.60
46309;DHT22;32037;50.820;6.494;2023-04-21T03:34:27;12.60;78.70
46309;DHT22;32037;50.820;6.494;2023-04-21T03:36:57;12.60;78.60
46309;DHT22;32037;50.820;6.494;2023-04-21T03:39:26;12.60;78.60
46309;DHT22;32037;50.820;6.494;2023-04-21T03:41:54;12.60;78.70
46309;DHT22;32037;50.820;6.494;2023-04-21T03:44:24;12.60;78.70
46309;DHT22;32037;50.820;6.494;2023-04-21T03:46:53;12.60;78.70
46309;DHT22;32037;50.820;6.494;2023-04-21T03:49:22;12.60;78.80
46309;DHT22;32037;50.820;6.494;2023-04-21T03:51:52;12.60;78.70
46309;DHT22;32037;50.820;6.494;2023-04-21T03:54:20;12.60;78.70
46309;DHT22;32037;50.820;6.494;2023-04-21T03:56:49;12.60;78.80
46309;DHT22;32037;50.820;6.494;2023-04-21T03:59:17;12.60;78.70
46309;DHT22;32037;50.820;6.494;2023-04-21T04:01:46;12.60;78.70
46309;DHT22;32037;50.820;6.494;2023-04-21T04:04:15;12.60;78.80
46309;DHT22;32037;50.820;6.494;2023-04-21T04:06:43;12.60;78.80
46309;DHT22;32037;50.820;6.494;2023-04-21T04:09:13;12.60;78.80
46309;DHT22;32037;50.820;6.494;2023-04-21T04:11:41;12.60;78.80
46309;DHT22;32037;50.820;6.494;2023-04-21T04:14:10;12.60;78.80
46309;DHT22;32037;50.820;6.494;2023-04-21T04:16:38;12.60;78.80
46309;DHT22;32037;50.820;6.494;2023-04-21T04:19:07;12.60;78.70
46309;DHT22;32037;50.820;6.494;2023-04-21T04:21:35;12.50;78.70
46309;DHT22;32037;50.820;6.494;2023-04-21T04:24:04;12.50;78.70
46309;DHT22;32037;50.820;6.494;2023-04-21T04:26:35;12.50;78.70
46309;DHT22;32037;50.820;6.494;2023-04-21T04:29:04;12.50;78.60
46309;DHT22;32037;50.820;6.494;2023-04-21T04:31:36;12.50;78.60
46309;DHT22;32037;50.820;6.494;2023-04-21T04:34:04;12.50;78.70
46309;DHT22;32037;50.820;6.494;2023-04-21T04:36:35;12.50;78.70
46309;DHT22;32037;50.820;6.494;2023-04-21T04:39:03;12.50;78.80
46309;DHT22;32037;50.820;6.494;2023-04-21T04:41:36;12.50;78.70
46309;DHT22;32037;50.820;6.494;2023-04-21T04:44:05;12.50;78.70
46309;DHT22;32037;50.820;6.494;2023-04-21T04:46:33;12.50;78.70
46309;DHT22;32037;50.820;6.494;2023-04-21T04:49:02;12.50;78.70
46309;DHT22;32037;50.820;6.494;2023-04-21T04:51:30;12.50;78.70
46309;DHT22;32037;50.820;6.494;2023-04-21T04:53:59;12.50;78.70
46309;DHT22;32037;50.820;6.494;2023-04-21T04:56:29;12.50;78.80
46309;DHT22;32037;50.820;6.494;2023-04-21T04:58:59;12.50;78.80
46309;DHT22;32037;50.820;6.494;2023-04-21T05:01:27;12.50;78.90
46309;DHT22;32037;50.820;6.494;2023-04-21T05:03:57;12.50;79.00
46309;DHT22;32037;50.820;6.494;2023-04-21T05:06:25;12.50;78.90
46309;DHT22;32037;50.820;6.494;2023-04-21T05:08:54;12.50;78.90
46309;DHT22;32037;50.820;6.494;2023-04-21T05:11:23;12.40;78.80
46309;DHT22;32037;50.820;6.494;2023-04-21T05:13:51;12.50;78.90
46309;DHT22;32037;50.820;6.494;2023-04-21T05:16:21;12.40;78.80
46309;DHT22;32037;50.820;6.494;2023-04-21T05:18:50;12.40;78.80
46309;DHT22;32037;50.820;6.494;2023-04-21T05:21:23;12.40;78.80
46309;DHT22;32037;50.820;6.494;2023-04-21T05:23:54;12.40;78.80
46309;DHT22;32037;50.820;6.494;2023-04-21T05:26:23;12.40;78.80
46309;DHT22;32037;50.820;6.494;2023-04-21T05:28:52;12.40;78.80
46309;DHT22;32037;50.820;6.494;2023-04-21T05:31:21;12.40;78.80
46309;DHT22;32037;50.820;6.494;2023-04-21T05:33:50;12.40;78.90
46309;DHT22;32037;50.820;6.494;2023-04-21T05:36:18;12.40;78.90
46309;DHT22;32037;50.820;6.494;2023-04-21T05:38:47;12.40;79.00
46309;DHT22;32037;50.820;6.494;2023-04-21T05:41:15;12.40;78.90
46309;DHT22;32037;50.820;6.494;2023-04-21T05:43:44;12.40;78.90
46309;DHT22;32037;50.820;6.494;2023-04-21T05:46:13;12.40;78.90
46309;DHT22;32037;50.820;6.494;2023-04-21T05:48:43;12.40;78.90
46309;DHT22;32037;50.820;6.494;2023-04-21T05:51:12;12.40;78.90
46309;DHT22;32037;50.820;6.494;2023-04-21T05:53:42;12.40;79.00
46309;DHT22;32037;50.820;6.494;2023-04-21T05:56:11;12.40;78.90
46309;DHT22;32037;50.820;6.494;2023-04-21T05:58:40;12.40;79.00
46309;DHT22;32037;50.820;6.494;2023-04-21T06:01:09;12.40;78.90
46309;DHT22;32037;50.820;6.494;2023-04-21T06:03:39;12.40;78.90
46309;DHT22;32037;50.820;6.494;2023-04-21T06:06:09;12.40;79.00
46309;DHT22;32037;50.820;6.494;2023-04-21T06:08:40;12.40;79.00
46309;DHT22;32037;50.820;6.494;2023-04-21T06:11:09;12.40;79.00
46309;DHT22;32037;50.820;6.494;2023-04-21T06:13:37;12.40;79.00
46309;DHT22;32037;50.820;6.494;2023-04-21T06:16:09;12.30;79.00
46309;DHT22;32037;50.820;6.494;2023-04-21T06:18:37;12.30;78.90
46309;DHT22;32037;50.820;6.494;2023-04-21T06:21:05;12.30;79.10
46309;DHT22;32037;50.820;6.494;2023-04-21T06:23:35;12.40;79.10
46309;DHT22;32037;50.820;6.494;2023-04-21T06:26:04;12.30;78.90
46309;DHT22;32037;50.820;6.494;2023-04-21T06:28:34;12.30;78.90
46309;DHT22;32037;50.820;6.494;2023-04-21T06:31:03;12.30;78.90
46309;DHT22;32037;50.820;6.494;2023-04-21T06:33:35;12.30;79.10
46309;DHT22;32037;50.820;6.494;2023-04-21T06:36:04;12.30;79.30
46309;DHT22;32037;50.820;6.494;2023-04-21T06:38:32;12.30;79.30
46309;DHT22;32037;50.820;6.494;2023-04-21T06:41:02;12.40;79.60
46309;DHT22;32037;50.820;6.494;2023-04-21T06:43:30;12.40;79.50
46309;DHT22;32037;50.820;6.494;2023-04-21T06:45:59;12.30;79.50
46309;DHT22;32037;50.820;6.494;2023-04-21T06:48:28;12.40;80.40
46309;DHT22;32037;50.820;6.494;2023-04-21T06:50:56;12.40;80.60
46309;DHT22;32037;50.820;6.494;2023-04-21T06:53:26;12.40;80.30
46309;DHT22;32037;50.820;6.494;2023-04-21T06:55:55;12.40;79.90
46309;DHT22;32037;50.820;6.494;2023-04-21T06:58:24;12.40;79.80
46309;DHT22;32037;50.820;6.494;2023-04-21T07:00:53;12.40;79.80
46309;DHT22;32037;50.820;6.494;2023-04-21T07:03:21;12.40;79.60
46309;DHT22;32037;50.820;6.494;2023-04-21T07:05:50;12.40;79.70
46309;DHT22;32037;50.820;6.494;2023-04-21T07:08:19;12.50;79.70
46309;DHT22;32037;50.820;6.494;2023-04-21T07:10:47;12.50;79.80
46309;DHT22;32037;50.820;6.494;2023-04-21T07:13:16;12.50;79.30
46309;DHT22;32037;50.820;6.494;2023-04-21T07:15:46;12.50;79.30
46309;DHT22;32037;50.820;6.494;2023-04-21T07:18:14;12.50;79.20
46309;DHT22;32037;50.820;6.494;2023-04-21T07:20:43;12.50;79.20
46309;DHT22;32037;50.820;6.494;2023-04-21T07:23:11;12.50;79.20
46309;DHT22;32037;50.820;6.494;2023-04-21T07:25:40;12.50;79.40
46309;DHT22;32037;50.820;6.494;2023-04-21T07:28:08;12.50;79.50
46309;DHT22;32037;50.820;6.494;2023-04-21T07:30:37;12.50;79.40
46309;DHT22;32037;50.820;6.494;2023-04-21T07:33:07;12.50;79.40
46309;DHT22;32037;50.820;6.494;2023-04-21T07:35:36;12.50;79.20
46309;DHT22;32037;50.820;6.494;2023-04-21T07:38:05;12.50;79.20
46309;DHT22;32037;50.820;6.494;2023-04-21T07:40:33;12.50;79.40
46309;DHT22;32037;50.820;6.494;2023-04-21T07:43:02;12.50;79.30
46309;DHT22;32037;50.820;6.494;2023-04-21T07:45:31;12.60;79.20
46309;DHT22;32037;50.820;6.494;2023-04-21T07:47:59;12.50;79.00
46309;DHT22;32037;50.820;6.494;2023-04-21T07:50:29;12.60;79.10
46309;DHT22;32037;50.820;6.494;2023-04-21T07:52:57;12.60;79.10
46309;DHT22;32037;50.820;6.494;2023-04-21T07:55:27;12.60;78.90
46309;DHT22;32037;50.820;6.494;2023-04-21T07:57:56;12.60;78.90
46309;DHT22;32037;50.820;6.494;2023-04-21T08:00:24;12.60;79.00
46309;DHT22;32037;50.820;6.494;2023-04-21T08:02:53;12.60;78.90
46309;DHT22;32037;50.820;6.494;2023-04-21T08:05:21;12.60;78.90
46309;DHT22;32037;50.820;6.494;2023-04-21T08:07:54;12.60;78.80
46309;DHT22;32037;50.820;6.494;2023-04-21T08:10:23;12.60;78.70
46309;DHT22;32037;50.820;6.494;2023-04-21T08:12:51;12.60;78.70
46309;DHT22;32037;50.820;6.494;2023-04-21T08:15:20;12.60;78.80
46309;DHT22;32037;50.820;6.494;2023-04-21T08:17:49;12.60;78.80
46309;DHT22;32037;50.820;6.494;2023-04-21T08:20:18;12.70;78.90
46309;DHT22;32037;50.820;6.494;2023-04-21T08:22:46;12.60;78.90
46309;DHT22;32037;50.820;6.494;2023-04-21T08:25:16;12.60;78.90
46309;DHT22;32037;50.820;6.494;2023-04-21T08:27:44;12.60;78.90
46309;DHT22;32037;50.820;6.494;2023-04-21T08:30:13;12.60;78.90
46309;DHT22;32037;50.820;6.494;2023-04-21T08:32:42;12.60;79.20
46309;DHT22;32037;50.820;6.494;2023-04-21T08:35:10;12.60;78.90
46309;DHT22;32037;50.820;6.494;2023-04-21T08:37:39;12.60;78.90
46309;DHT22;32037;50.820;6.494;2023-04-21T08:40:08;12.60;78.90
46309;DHT22;32037;50.820;6.494;2023-04-21T08:42:38;12.60;79.00
46309;DHT22;32037;50.820;6.494;2023-04-21T08:45:08;12.60;79.00
46309;DHT22;32037;50.820;6.494;2023-04-21T08:47:39;12.60;79.00
46309;DHT22;32037;50.820;6.494;2023-04-21T08:50:12;12.60;79.00
46309;DHT22;32037;50.820;6.494;2023-04-21T08:52:40;12.60;78.90
46309;DHT22;32037;50.820;6.494;2023-04-21T08:55:10;12.60;78.90
46309;DHT22;32037;50.820;6.494;2023-04-21T08:57:43;12.70;79.00
46309;DHT22;32037;50.820;6.494;2023-04-21T09:00:12;12.70;78.90
46309;DHT22;32037;50.820;6.494;2023-04-21T09:02:54;12.70;78.90
46309;DHT22;32037;50.820;6.494;2023-04-21T09:05:29;12.70;78.90
46309;DHT22;32037;50.820;6.494;2023-04-21T09:08:07;12.70;78.90
46309;DHT22;32037;50.820;6.494;2023-04-21T09:10:43;12.70;78.90
46309;DHT22;32037;50.820;6.494;2023-04-21T09:13:14;12.70;79.00
46309;DHT22;32037;50.820;6.494;2023-04-21T09:15:45;12.70;79.00
46309;DHT22;32037;50.820;6.494;2023-04-21T09:18:14;12.70;79.00
46309;DHT22;32037;50.820;6.494;2023-04-21T09:20:45;12.70;79.00
46309;DHT22;32037;50.820;6.494;2023-04-21T09:23:13;12.70;79.00
46309;DHT22;32037;50.820;6.494;2023-04-21T09:25:43;12.70;79.10
46309;DHT22;32037;50.820;6.494;2023-04-21T09:28:13;12.70;79.10
46309;DHT22;32037;50.820;6.494;2023-04-21T09:30:42;12.70;79.00
46309;DHT22;32037;50.820;6.494;2023-04-21T09:33:14;12.70;79.00
46309;DHT22;32037;50.820;6.494;2023-04-21T09:36:00;12.70;79.00
46309;DHT22;32037;50.820;6.494;2023-04-21T09:38:30;12.70;79.10
46309;DHT22;32037;50.820;6.494;2023-04-21T09:43:57;12.70;79.00
46309;DHT22;32037;50.820;6.494;2023-04-21T09:46:29;12.70;79.10
46309;DHT22;32037;50.820;6.494;2023-04-21T09:49:00;12.70;79.00
46309;DHT22;32037;50.820;6.494;2023-04-21T09:51:29;12.70;79.10
46309;DHT22;32037;50.820;6.494;2023-04-21T09:54:20;12.70;79.10
46309;DHT22;32037;50.820;6.494;2023-04-21T09:56:55;12.70;79.10
46309;DHT22;32037;50.820;6.494;2023-04-21T10:05:13;12.70;79.20
46309;DHT22;32037;50.820;6.494;2023-04-21T10:07:45;12.70;79.20
46309;DHT22;32037;50.820;6.494;2023-04-21T10:12:59;12.70;79.20
46309;DHT22;32037;50.820;6.494;2023-04-21T10:15:29;12.70;79.20
46309;DHT22;32037;50.820;6.494;2023-04-21T10:18:12;12.70;79.10
46309;DHT22;32037;50.820;6.494;2023-04-21T10:20:55;12.70;79.30
46309;DHT22;32037;50.820;6.494;2023-04-21T10:23:29;12.70;79.20
46309;DHT22;32037;50.820;6.494;2023-04-21T10:26:08;12.70;79.20
46309;DHT22;32037;50.820;6.494;2023-04-21T10:29:02;12.70;79.20
46309;DHT22;32037;50.820;6.494;2023-04-21T10:31:32;12.70;79.30
46309;DHT22;32037;50.820;6.494;2023-04-21T10:34:18;12.70;79.30
46309;DHT22;32037;50.820;6.494;2023-04-21T10:37:11;12.70;79.40
46309;DHT22;32037;50.820;6.494;2023-04-21T10:39:44;12.70;79.40
46309;DHT22;32037;50.820;6.494;2023-04-21T10:42:28;12.70;79.60
46309;DHT22;32037;50.820;6.494;2023-04-21T10:45:07;12.70;79.50
46309;DHT22;32037;50.820;6.494;2023-04-21T10:47:38;12.70;79.50
46309;DHT22;32037;50.820;6.494;2023-04-21T10:50:13;12.80;79.60
46309;DHT22;32037;50.820;6.494;2023-04-21T10:52:54;12.80;79.60
46309;DHT22;32037;50.820;6.494;2023-04-21T10:55:28;12.80;79.70
46309;DHT22;32037;50.820;6.494;2023-04-21T10:58:00;12.80;79.70
46309;DHT22;32037;50.820;6.494;2023-04-21T11:00:30;12.80;79.60
46309;DHT22;32037;50.820;6.494;2023-04-21T11:03:00;12.80;79.60
46309;DHT22;32037;50.820;6.494;2023-04-21T11:05:31;12.80;79.60
46309;DHT22;32037;50.820;6.494;2023-04-21T11:08:10;12.80;79.60
46309;DHT22;32037;50.820;6.494;2023-04-21T11:13:31;12.80;80.00
46309;DHT22;32037;50.820;6.494;2023-04-21T11:16:04;12.80;80.00
46309;DHT22;32037;50.820;6.494;2023-04-21T11:18:37;12.80;79.90
46309;DHT22;32037;50.820;6.494;2023-04-21T11:21:10;12.80;79.80
46309;DHT22;32037;50.820;6.494;2023-04-21T11:23:45;12.80;79.80
46309;DHT22;32037;50.820;6.494;2023-04-21T11:26:15;12.80;79.70
46309;DHT22;32037;50.820;6.494;2023-04-21T11:28:47;12.80;79.80
46309;DHT22;32037;50.820;6.494;2023-04-21T11:31:21;12.80;79.90
46309;DHT22;32037;50.820;6.494;2023-04-21T11:33:51;12.80;80.00
46309;DHT22;32037;50.820;6.494;2023-04-21T11:36:22;12.80;80.00
46309;DHT22;32037;50.820;6.494;2023-04-21T11:38:54;12.80;80.00
46309;DHT22;32037;50.820;6.494;2023-04-21T11:41:23;12.80;80.00
46309;DHT22;32037;50.820;6.494;2023-04-21T11:43:52;12.80;80.10
46309;DHT22;32037;50.820;6.494;2023-04-21T11:46:23;12.80;80.10
46309;DHT22;32037;50.820;6.494;2023-04-21T11:48:59;12.80;80.00
46309;DHT22;32037;50.820;6.494;2023-04-21T11:51:33;12.80;80.00
46309;DHT22;32037;50.820;6.494;2023-04-21T11:54:04;12.80;80.20
46309;DHT22;32037;50.820;6.494;2023-04-21T11:56:34;12.80;80.20
46309;DHT22;32037;50.820;6.494;2023-04-21T11:59:07;12.80;80.40
46309;DHT22;32037;50.820;6.494;2023-04-21T12:01:42;12.80;80.50
46309;DHT22;32037;50.820;6.494;2023-04-21T12:04:14;12.80;80.50
46309;DHT22;32037;50.820;6.494;2023-04-21T12:06:44;12.90;80.70
46309;DHT22;32037;50.820;6.494;2023-04-21T12:09:18;12.80;80.40
46309;DHT22;32037;50.820;6.494;2023-04-21T12:11:48;12.80;80.50
46309;DHT22;32037;50.820;6.494;2023-04-21T12:14:18;12.80;80.50
46309;DHT22;32037;50.820;6.494;2023-04-21T12:16:48;12.80;80.50
46309;DHT22;32037;50.820;6.494;2023-04-21T12:19:34;12.80;80.60
46309;DHT22;32037;50.820;6.494;2023-04-21T12:22:06;12.90;81.90
46309;DHT22;32037;50.820;6.494;2023-04-21T12:24:37;12.90;80.60
46309;DHT22;32037;50.820;6.494;2023-04-21T12:27:06;12.90;80.70
46309;DHT22;32037;50.820;6.494;2023-04-21T12:29:35;12.90;80.80
46309;DHT22;32037;50.820;6.494;2023-04-21T12:32:05;12.90;80.80
46309;DHT22;32037;50.820;6.494;2023-04-21T12:34:34;12.90;80.70
46309;DHT22;32037;50.820;6.494;2023-04-21T12:37:03;12.90;80.60
46309;DHT22;32037;50.820;6.494;2023-04-21T12:39:32;12.90;80.60
46309;DHT22;32037;50.820;6.494;2023-04-21T12:42:04;12.90;80.20
46309;DHT22;32037;50.820;6.494;2023-04-21T12:44:33;12.90;80.50
46309;DHT22;32037;50.820;6.494;2023-04-21T12:47:02;12.90;80.50
46309;DHT22;32037;50.820;6.494;2023-04-21T12:49:30;12.90;80.60
46309;DHT22;32037;50.820;6.494;2023-04-21T12:51:59;13.00;80.70
46309;DHT22;32037;50.820;6.494;2023-04-21T12:54:28;12.90;80.50
46309;DHT22;32037;50.820;6.494;2023-04-21T12:56:57;13.00;80.50
46309;DHT22;32037;50.820;6.494;2023-04-21T12:59:27;12.90;80.30
46309;DHT22;32037;50.820;6.494;2023-04-21T13:01:56;13.00;79.60
46309;DHT22;32037;50.820;6.494;2023-04-21T13:04:25;13.00;79.40
46309;DHT22;32037;50.820;6.494;2023-04-21T13:06:54;13.00;79.70
46309;DHT22;32037;50.820;6.494;2023-04-21T13:09:23;13.00;79.40
46309;DHT22;32037;50.820;6.494;2023-04-21T13:11:52;13.00;79.40
46309;DHT22;32037;50.820;6.494;2023-04-21T13:14:24;13.00;79.00
46309;DHT22;32037;50.820;6.494;2023-04-21T13:16:54;13.00;79.10
46309;DHT22;32037;50.820;6.494;2023-04-21T13:19:22;13.00;79.30
46309;DHT22;32037;50.820;6.494;2023-04-21T13:21:51;13.00;78.60
46309;DHT22;32037;50.820;6.494;2023-04-21T13:24:20;13.10;79.10
46309;DHT22;32037;50.820;6.494;2023-04-21T13:26:50;13.10;79.40
46309;DHT22;32037;50.820;6.494;2023-04-21T13:29:20;13.10;78.40
46309;DHT22;32037;50.820;6.494;2023-04-21T13:31:48;13.10;78.40
46309;DHT22;32037;50.820;6.494;2023-04-21T13:34:19;13.10;77.30
46309;DHT22;32037;50.820;6.494;2023-04-21T13:36:48;13.10;77.80
46309;DHT22;32037;50.820;6.494;2023-04-21T13:39:17;13.10;78.60
46309;DHT22;32037;50.820;6.494;2023-04-21T13:41:47;13.10;78.00
46309;DHT22;32037;50.820;6.494;2023-04-21T13:44:20;13.10;78.00
46309;DHT22;32037;50.820;6.494;2023-04-21T13:46:49;13.10;78.10
46309;DHT22;32037;50.820;6.494;2023-04-21T13:49:21;13.10;77.90
46309;DHT22;32037;50.820;6.494;2023-04-21T13:51:50;13.10;78.10
46309;DHT22;32037;50.820;6.494;2023-04-21T13:54:19;13.20;78.60
46309;DHT22;32037;50.820;6.494;2023-04-21T13:56:47;13.20;78.50
46309;DHT22;32037;50.820;6.494;2023-04-21T13:59:17;13.20;78.90
46309;DHT22;32037;50.820;6.494;2023-04-21T14:01:49;13.20;79.00
46309;DHT22;32037;50.820;6.494;2023-04-21T14:04:28;13.20;78.90
46309;DHT22;32037;50.820;6.494;2023-04-21T14:06:56;13.20;78.90
46309;DHT22;32037;50.820;6.494;2023-04-21T14:09:25;13.20;79.00
46309;DHT22;32037;50.820;6.494;2023-04-21T14:11:54;13.20;78.90
46309;DHT22;32037;50.820;6.494;2023-04-21T14:14:23;13.20;79.20
46309;DHT22;32037;50.820;6.494;2023-04-21T14:17:04;13.20;78.60
46309;DHT22;32037;50.820;6.494;2023-04-21T14:19:34;13.20;79.30
46309;DHT22;32037;50.820;6.494;2023-04-21T14:22:03;13.20;79.40
46309;DHT22;32037;50.820;6.494;2023-04-21T14:24:31;13.20;79.40
46309;DHT22;32037;50.820;6.494;2023-04-21T14:27:00;13.20;79.70
46309;DHT22;32037;50.820;6.494;2023-04-21T14:29:29;13.20;79.50
46309;DHT22;32037;50.820;6.494;2023-04-21T14:31:58;13.20;79.20
46309;DHT22;32037;50.820;6.494;2023-04-21T14:34:27;13.20;79.10
46309;DHT22;32037;50.820;6.494;2023-04-21T14:36:57;13.20;79.20
46309;DHT22;32037;50.820;6.494;2023-04-21T14:39:26;13.30;79.50
46309;DHT22;32037;50.820;6.494;2023-04-21T14:41:55;13.30;79.10
46309;DHT22;32037;50.820;6.494;2023-04-21T14:44:24;13.30;79.20
46309;DHT22;32037;50.820;6.494;2023-04-21T14:46:52;13.30;79.40
46309;DHT22;32037;50.820;6.494;2023-04-21T14:49:36;13.30;79.40
46309;DHT22;32037;50.820;6.494;2023-04-21T14:52:06;13.30;79.00
46309;DHT22;32037;50.820;6.494;2023-04-21T14:54:35;13.30;79.20
46309;DHT22;32037;50.820;6.494;2023-04-21T14:57:04;13.30;79.60
46309;DHT22;32037;50.820;6.494;2023-04-21T14:59:48;13.30;79.50
46309;DHT22;32037;50.820;6.494;2023-04-21T15:02:18;13.30;79.60
46309;DHT22;32037;50.820;6.494;2023-04-21T15:04:48;13.30;79.70
46309;DHT22;32037;50.820;6.494;2023-04-21T15:07:18;13.30;79.60
46309;DHT22;32037;50.820;6.494;2023-04-21T15:09:50;13.30;79.90
46309;DHT22;32037;50.820;6.494;2023-04-21T15:12:19;13.30;79.80
46309;DHT22;32037;50.820;6.494;2023-04-21T15:14:49;13.30;79.60
46309;DHT22;32037;50.820;6.494;2023-04-21T15:17:17;13.30;79.80
46309;DHT22;32037;50.820;6.494;2023-04-21T15:19:46;13.40;79.80
46309;DHT22;32037;50.820;6.494;2023-04-21T15:22:14;13.40;80.00
46309;DHT22;32037;50.820;6.494;2023-04-21T15:24:44;13.50;79.20
46309;DHT22;32037;50.820;6.494;2023-04-21T15:27:13;13.60;79.20
46309;DHT22;32037;50.820;6.494;2023-04-21T15:29:42;13.60;79.10
46309;DHT22;32037;50.820;6.494;2023-04-21T15:32:12;13.70;79.40
46309;DHT22;32037;50.820;6.494;2023-04-21T15:34:40;13.70;79.50
46309;DHT22;32037;50.820;6.494;2023-04-21T15:37:09;13.80;79.60
46309;DHT22;32037;50.820;6.494;2023-04-21T15:39:38;13.80;79.70
46309;DHT22;32037;50.820;6.494;2023-04-21T15:42:08;13.80;79.70
46309;DHT22;32037;50.820;6.494;2023-04-21T15:44:37;13.80;80.20
46309;DHT22;32037;50.820;6.494;2023-04-21T15:47:06;13.90;80.10
46309;DHT22;32037;50.820;6.494;2023-04-21T15:49:34;13.90;79.90
46309;DHT22;32037;50.820;6.494;2023-04-21T15:52:03;13.90;79.90
46309;DHT22;32037;50.820;6.494;2023-04-21T15:54:32;13.90;79.80
46309;DHT22;32037;50.820;6.494;2023-04-21T15:57:02;13.90;80.00
46309;DHT22;32037;50.820;6.494;2023-04-21T15:59:33;13.90;79.80
46309;DHT22;32037;50.820;6.494;2023-04-21T16:02:01;13.90;80.90